x

Long Key, Fl (lonf1) Weather Station

4:00am - Wed 22nd Oct 2014 All times are CDT. -4 hours from GMT.

  • Wind
    5mph, 6mph gusts
  • Sea Temp 79°f
  • Air Temp 79°f
  • Sea Pressure 1013.2mb
  • Long Key, Fl
  • Long Key, Fl

More Historic Weather Station data

Upgrade to MSW Pro to gain access to the past 30 days of data for over 8000 Wavebouys and Weather Stations around the globe.

Join Pro

Comparision Forecast

View Surf forecast
   
Wed 10/22 4:00am 5 6 mph 1013.2mb 79f 79f
3:00am 6 7 mph 1013.2mb 80f 78f
2:00am 7 8 mph 1014mb 80f 78f
1:00am 8 9 mph 1014.3mb 80f 78f
12:00am 8 9 mph 1015mb 80f 77f
Tue 10/21 11:00pm 7 8 mph 1015.8mb 80f 77f
10:00pm 7 8 mph 1015.9mb 80f 77f
9:00pm 9 10 mph 1015.2mb 80f 77f
8:00pm 5 6 mph 1014.8mb 80f 78f
7:00pm 2 3 mph 1014mb 80f 77f
6:00pm 3
mph
1013.5mb 80f 77f
5:00pm  -  mph 1013.1mb 80f 77f
4:00pm 6 7 mph 1013.1mb 80f 76f
3:00pm 7 9 mph 1014.3mb 80f 76f
2:00pm 10 11 mph 1015.4mb 80f 76f
1:00pm 7 8 mph 1015.8mb 80f 76f
12:00pm 10
mph
1016.1mb 80f 77f
11:00am 5
mph
1016.2mb 80f 77f
10:00am 14 15 mph 1015.7mb 80f 77f
9:00am 10 14 mph 1015.1mb 81f 80f
8:00am 13 14 mph 1014.2mb 80f 78f
7:00am 15 16 mph 1013.9mb 81f 78f
6:00am 2 3 mph 1013.9mb 81f 79f
5:00am 5 6 mph 1013.5mb 81f 80f
4:00am 9 10 mph 1013.6mb 81f 79f
3:00am 11
mph
1013.3mb 81f 79f
2:00am 13 14 mph 1013.8mb 81f 82f
1:00am 9 10 mph 1014.7mb 81f 82f
12:00am 11 13 mph 1015.4mb 81f 81f
Mon 10/20 11:00pm 6 7 mph 1016mb 81f 80f
10:00pm 3 5 mph 1015.6mb 81f 77f
9:00pm 14 20 mph 1015.1mb 81f 77f
8:00pm 10 11 mph 1014.4mb 82f 80f
7:00pm 9 10 mph 1014.3mb 82f 81f
6:00pm 14 15 mph 1013.9mb 82f 81f
5:00pm 10 11 mph 1013.9mb 82f 82f
4:00pm 9 10 mph 1014.4mb 82f 80f
3:00pm 11 13 mph 1014.8mb 82f 80f
2:00pm 17 20 mph 1014.9mb 82f 78f
1:00pm 17 20 mph 1016.1mb 82f 79f
12:00pm 10
mph
1016.7mb 82f 80f
11:00am 8 9 mph 1017mb 81f 82f
10:00am 6 7 mph 1017.1mb 81f 81f
9:00am 5
mph
1016.3mb 81f 80f
8:00am 13 15 mph 1016mb 81f 80f
7:00am 10 11 mph 1015.4mb 81f 81f
6:00am 9 13 mph 1015.3mb 81f 81f
5:00am 11 13 mph 1015.5mb 82f 81f
4:00am 11 13 mph 1015.5mb 82f 81f
3:00am 11 13 mph 1015.7mb 82f 81f
2:00am 11 13 mph 1016mb 82f 81f
1:00am 10
mph
1016.5mb 82f 81f
12:00am 11 13 mph 1016.5mb 82f 81f
Sun 10/19 11:00pm 13 15 mph 1017mb 82f 81f
10:00pm 13 14 mph 1016.6mb 82f 81f
9:00pm 11 13 mph 1016.2mb 83f 81f
8:00pm 6 7 mph 1016mb 83f 80f
7:00pm 5
mph
1015.7mb 83f 80f
6:00pm 6 7 mph 1015.2mb 83f 79f
5:00pm 5 6 mph 1015.1mb 83f 79f
4:00pm 5 6 mph 1015.5mb 83f 79f
3:00pm 2 3 mph 1015.4mb 83f 79f
2:00pm  -  1 mph 1015.5mb 83f 78f
1:00pm 3 5 mph 1016.2mb 82f 78f
12:00pm  -  2 mph 1016.5mb 81f 78f
11:00am 2 5 mph 1016.8mb 81f 78f
10:00am 3 5 mph 1016.9mb 81f 78f
9:00am 5 7 mph 1016.6mb 81f 78f
8:00am 10 11 mph 1016.3mb 81f 77f
7:00am 11 14 mph 1015.8mb 81f 77f
6:00am 5 6 mph 1015.4mb 81f 77f
5:00am 5 6 mph 1015.2mb 81f 77f
4:00am 2
mph
1015.2mb 81f 77f
3:00am 2 3 mph 1015.3mb 81f 77f
2:00am 2 3 mph 1015.5mb 82f 77f
1:00am  -  2 mph 1015.7mb 82f 77f
12:00am  -  1 mph 1015.9mb 82f 78f
Sat 10/18 11:00pm 1 2 mph 1016.2mb 82f 77f
10:00pm 2
mph
1015.9mb 82f 78f
9:00pm 2 3 mph 1015.5mb 82f 78f
8:00pm 1 2 mph 1015mb 82f 78f
7:00pm 3 5 mph 1014.3mb 82f 78f
6:00pm  -  1 mph 1014mb 82f 82f
5:00pm 2 3 mph 1013.9mb 82f 79f
4:00pm 2
mph
1013.9mb 82f 79f
3:00pm  -  1 mph 1014.3mb 82f 79f
2:00pm 3
mph
1014.8mb 82f 78f
1:00pm 3
mph
1015.6mb 81f 78f
12:00pm  -  2 mph 1016.3mb 81f 78f
11:00am 3 5 mph 1016.7mb 80f 77f
10:00am 1 3 mph 1016.6mb 80f 78f